sensor_id;sensor_type;location;lat;lon;timestamp;temperature;humidity
2621;DHT22;1320;48.128;11.592;2024-01-25T00:01:40;10.10;99.90
2621;DHT22;1320;48.128;11.592;2024-01-25T00:04:05;10.10;99.90
2621;DHT22;1320;48.128;11.592;2024-01-25T00:06:31;10.10;99.90
2621;DHT22;1320;48.128;11.592;2024-01-25T00:08:57;10.10;99.90
2621;DHT22;1320;48.128;11.592;2024-01-25T00:11:22;10.10;99.90
2621;DHT22;1320;48.128;11.592;2024-01-25T00:13:48;10.10;99.90
2621;DHT22;1320;48.128;11.592;2024-01-25T00:16:13;10.10;99.90
2621;DHT22;1320;48.128;11.592;2024-01-25T00:18:39;10.10;99.90
2621;DHT22;1320;48.128;11.592;2024-01-25T00:21:05;10.00;99.90
2621;DHT22;1320;48.128;11.592;2024-01-25T00:23:30;10.00;99.90
2621;DHT22;1320;48.128;11.592;2024-01-25T00:25:56;10.00;99.90
2621;DHT22;1320;48.128;11.592;2024-01-25T00:28:25;10.00;99.90
2621;DHT22;1320;48.128;11.592;2024-01-25T00:30:51;10.10;99.90
2621;DHT22;1320;48.128;11.592;2024-01-25T00:33:16;10.00;99.90
2621;DHT22;1320;48.128;11.592;2024-01-25T00:35:42;10.00;99.90
2621;DHT22;1320;48.128;11.592;2024-01-25T00:38:09;10.00;99.90
2621;DHT22;1320;48.128;11.592;2024-01-25T00:40:35;10.00;99.90
2621;DHT22;1320;48.128;11.592;2024-01-25T00:43:00;10.00;99.90
2621;DHT22;1320;48.128;11.592;2024-01-25T00:45:26;10.00;99.90
2621;DHT22;1320;48.128;11.592;2024-01-25T00:47:52;10.00;99.90
2621;DHT22;1320;48.128;11.592;2024-01-25T00:50:20;10.00;99.90
2621;DHT22;1320;48.128;11.592;2024-01-25T00:52:47;10.00;99.90
2621;DHT22;1320;48.128;11.592;2024-01-25T00:55:14;10.00;99.90
2621;DHT22;1320;48.128;11.592;2024-01-25T00:57:40;10.00;99.90
2621;DHT22;1320;48.128;11.592;2024-01-25T01:00:06;9.90;99.90
2621;DHT22;1320;48.128;11.592;2024-01-25T01:02:40;10.00;99.90
2621;DHT22;1320;48.128;11.592;2024-01-25T01:05:08;10.00;99.90
2621;DHT22;1320;48.128;11.592;2024-01-25T01:07:34;10.10;99.90
2621;DHT22;1320;48.128;11.592;2024-01-25T01:10:00;10.10;99.90
2621;DHT22;1320;48.128;11.592;2024-01-25T01:12:26;10.10;99.90
2621;DHT22;1320;48.128;11.592;2024-01-25T01:14:52;10.20;99.90
2621;DHT22;1320;48.128;11.592;2024-01-25T01:17:17;10.20;99.90
2621;DHT22;1320;48.128;11.592;2024-01-25T01:19:44;10.20;99.90
2621;DHT22;1320;48.128;11.592;2024-01-25T01:22:10;10.20;99.90
2621;DHT22;1320;48.128;11.592;2024-01-25T01:24:36;10.20;99.90
2621;DHT22;1320;48.128;11.592;2024-01-25T01:27:01;10.20;99.90
2621;DHT22;1320;48.128;11.592;2024-01-25T01:29:27;10.20;99.90
2621;DHT22;1320;48.128;11.592;2024-01-25T01:31:53;10.20;99.90
2621;DHT22;1320;48.128;11.592;2024-01-25T01:34:19;10.20;99.90
2621;DHT22;1320;48.128;11.592;2024-01-25T01:36:44;10.20;99.90
2621;DHT22;1320;48.128;11.592;2024-01-25T01:39:10;10.20;99.90
2621;DHT22;1320;48.128;11.592;2024-01-25T01:41:36;10.20;99.90
2621;DHT22;1320;48.128;11.592;2024-01-25T01:44:02;10.30;99.90
2621;DHT22;1320;48.128;11.592;2024-01-25T01:46:37;10.30;99.90
2621;DHT22;1320;48.128;11.592;2024-01-25T01:49:06;10.20;99.90
2621;DHT22;1320;48.128;11.592;2024-01-25T01:51:33;10.20;99.90
2621;DHT22;1320;48.128;11.592;2024-01-25T01:54:01;10.20;99.90
2621;DHT22;1320;48.128;11.592;2024-01-25T01:56:28;10.20;99.90
2621;DHT22;1320;48.128;11.592;2024-01-25T01:59:00;10.30;99.90
2621;DHT22;1320;48.128;11.592;2024-01-25T02:01:27;10.20;99.90
2621;DHT22;1320;48.128;11.592;2024-01-25T02:03:53;10.30;99.90
2621;DHT22;1320;48.128;11.592;2024-01-25T02:06:20;10.20;99.90
2621;DHT22;1320;48.128;11.592;2024-01-25T02:08:49;10.20;99.90
2621;DHT22;1320;48.128;11.592;2024-01-25T02:11:17;10.20;99.90
2621;DHT22;1320;48.128;11.592;2024-01-25T02:13:43;10.20;99.90
2621;DHT22;1320;48.128;11.592;2024-01-25T02:16:09;10.20;99.90
2621;DHT22;1320;48.128;11.592;2024-01-25T02:18:35;10.20;99.90
2621;DHT22;1320;48.128;11.592;2024-01-25T02:21:01;10.20;99.90
2621;DHT22;1320;48.128;11.592;2024-01-25T02:23:26;10.30;99.90
2621;DHT22;1320;48.128;11.592;2024-01-25T02:25:52;10.20;99.90
2621;DHT22;1320;48.128;11.592;2024-01-25T02:28:18;10.30;99.90
2621;DHT22;1320;48.128;11.592;2024-01-25T02:30:44;10.30;99.90
2621;DHT22;1320;48.128;11.592;2024-01-25T02:33:09;10.30;99.90
2621;DHT22;1320;48.128;11.592;2024-01-25T02:35:36;10.30;99.90
2621;DHT22;1320;48.128;11.592;2024-01-25T02:38:02;10.30;99.90
2621;DHT22;1320;48.128;11.592;2024-01-25T02:40:28;10.30;99.90
2621;DHT22;1320;48.128;11.592;2024-01-25T02:42:53;10.30;99.90
2621;DHT22;1320;48.128;11.592;2024-01-25T02:45:19;10.30;99.90
2621;DHT22;1320;48.128;11.592;2024-01-25T02:47:44;10.20;99.90
2621;DHT22;1320;48.128;11.592;2024-01-25T02:50:10;10.20;99.90
2621;DHT22;1320;48.128;11.592;2024-01-25T02:52:36;10.30;99.90
2621;DHT22;1320;48.128;11.592;2024-01-25T02:55:02;10.30;99.90
2621;DHT22;1320;48.128;11.592;2024-01-25T02:57:27;10.30;99.90
2621;DHT22;1320;48.128;11.592;2024-01-25T02:59:53;10.30;99.90
2621;DHT22;1320;48.128;11.592;2024-01-25T03:02:18;10.30;99.90
2621;DHT22;1320;48.128;11.592;2024-01-25T03:04:45;10.40;99.90
2621;DHT22;1320;48.128;11.592;2024-01-25T03:07:11;10.40;99.90
2621;DHT22;1320;48.128;11.592;2024-01-25T03:09:37;10.40;99.90
2621;DHT22;1320;48.128;11.592;2024-01-25T03:12:02;10.30;99.90
2621;DHT22;1320;48.128;11.592;2024-01-25T03:14:28;10.30;99.90
2621;DHT22;1320;48.128;11.592;2024-01-25T03:16:54;10.20;99.90
2621;DHT22;1320;48.128;11.592;2024-01-25T03:19:20;10.20;99.90
2621;DHT22;1320;48.128;11.592;2024-01-25T03:21:45;10.20;99.90
2621;DHT22;1320;48.128;11.592;2024-01-25T03:24:11;10.20;99.90
2621;DHT22;1320;48.128;11.592;2024-01-25T03:26:37;10.10;99.90
2621;DHT22;1320;48.128;11.592;2024-01-25T03:29:02;10.10;99.90
2621;DHT22;1320;48.128;11.592;2024-01-25T03:31:28;10.10;99.90
2621;DHT22;1320;48.128;11.592;2024-01-25T03:33:54;10.00;99.90
2621;DHT22;1320;48.128;11.592;2024-01-25T03:36:19;10.10;99.90
2621;DHT22;1320;48.128;11.592;2024-01-25T03:38:45;10.00;99.90
2621;DHT22;1320;48.128;11.592;2024-01-25T03:41:11;10.00;99.90
2621;DHT22;1320;48.128;11.592;2024-01-25T03:43:36;10.10;99.90
2621;DHT22;1320;48.128;11.592;2024-01-25T03:46:02;10.10;99.90
2621;DHT22;1320;48.128;11.592;2024-01-25T03:48:28;10.10;99.90
2621;DHT22;1320;48.128;11.592;2024-01-25T03:50:57;10.10;99.90
2621;DHT22;1320;48.128;11.592;2024-01-25T03:53:23;10.10;99.90
2621;DHT22;1320;48.128;11.592;2024-01-25T03:55:49;10.10;99.90
2621;DHT22;1320;48.128;11.592;2024-01-25T03:58:16;10.00;99.90
2621;DHT22;1320;48.128;11.592;2024-01-25T04:00:43;10.10;99.90
2621;DHT22;1320;48.128;11.592;2024-01-25T04:03:10;10.00;99.90
2621;DHT22;1320;48.128;11.592;2024-01-25T04:05:36;10.00;99.90
2621;DHT22;1320;48.128;11.592;2024-01-25T04:08:02;10.00;99.90
2621;DHT22;1320;48.128;11.592;2024-01-25T04:10:28;10.00;99.90
2621;DHT22;1320;48.128;11.592;2024-01-25T04:12:54;10.00;99.90
2621;DHT22;1320;48.128;11.592;2024-01-25T04:15:20;9.90;99.90
2621;DHT22;1320;48.128;11.592;2024-01-25T04:17:45;9.90;99.90
2621;DHT22;1320;48.128;11.592;2024-01-25T04:20:11;9.90;99.90
2621;DHT22;1320;48.128;11.592;2024-01-25T04:22:37;9.80;99.90
2621;DHT22;1320;48.128;11.592;2024-01-25T04:25:03;9.90;99.90
2621;DHT22;1320;48.128;11.592;2024-01-25T04:27:30;9.80;99.90
2621;DHT22;1320;48.128;11.592;2024-01-25T04:29:55;9.80;99.90
2621;DHT22;1320;48.128;11.592;2024-01-25T04:32:21;9.80;99.90
2621;DHT22;1320;48.128;11.592;2024-01-25T04:34:47;9.90;99.90
2621;DHT22;1320;48.128;11.592;2024-01-25T04:37:14;9.90;99.90
2621;DHT22;1320;48.128;11.592;2024-01-25T04:39:39;9.90;99.90
2621;DHT22;1320;48.128;11.592;2024-01-25T04:42:05;9.90;99.90
2621;DHT22;1320;48.128;11.592;2024-01-25T04:44:31;9.90;99.90
2621;DHT22;1320;48.128;11.592;2024-01-25T04:46:57;9.90;99.90
2621;DHT22;1320;48.128;11.592;2024-01-25T04:49:22;9.90;99.90
2621;DHT22;1320;48.128;11.592;2024-01-25T04:51:48;9.80;99.90
2621;DHT22;1320;48.128;11.592;2024-01-25T04:54:14;9.80;99.90
2621;DHT22;1320;48.128;11.592;2024-01-25T04:56:41;9.80;99.90
2621;DHT22;1320;48.128;11.592;2024-01-25T04:59:07;9.80;99.90
2621;DHT22;1320;48.128;11.592;2024-01-25T05:01:33;9.80;99.90
2621;DHT22;1320;48.128;11.592;2024-01-25T05:03:58;9.80;99.90
2621;DHT22;1320;48.128;11.592;2024-01-25T05:06:24;9.80;99.90
2621;DHT22;1320;48.128;11.592;2024-01-25T05:08:50;9.80;99.90
2621;DHT22;1320;48.128;11.592;2024-01-25T05:11:15;9.80;99.90
2621;DHT22;1320;48.128;11.592;2024-01-25T05:13:41;9.80;99.90
2621;DHT22;1320;48.128;11.592;2024-01-25T05:16:06;9.80;99.90
2621;DHT22;1320;48.128;11.592;2024-01-25T05:18:32;9.80;99.90
2621;DHT22;1320;48.128;11.592;2024-01-25T05:20:59;9.80;99.90
2621;DHT22;1320;48.128;11.592;2024-01-25T05:23:25;9.80;99.90
2621;DHT22;1320;48.128;11.592;2024-01-25T05:25:51;9.80;99.90
2621;DHT22;1320;48.128;11.592;2024-01-25T05:28:17;9.80;99.90
2621;DHT22;1320;48.128;11.592;2024-01-25T05:30:50;9.70;99.90
2621;DHT22;1320;48.128;11.592;2024-01-25T05:33:16;9.80;99.90
2621;DHT22;1320;48.128;11.592;2024-01-25T05:35:41;9.70;99.90
2621;DHT22;1320;48.128;11.592;2024-01-25T05:38:07;9.80;99.90
2621;DHT22;1320;48.128;11.592;2024-01-25T05:40:33;9.80;99.90
2621;DHT22;1320;48.128;11.592;2024-01-25T05:42:59;9.80;99.90
2621;DHT22;1320;48.128;11.592;2024-01-25T05:45:25;9.80;99.90
2621;DHT22;1320;48.128;11.592;2024-01-25T05:47:52;9.80;99.90
2621;DHT22;1320;48.128;11.592;2024-01-25T05:50:18;9.80;99.90
2621;DHT22;1320;48.128;11.592;2024-01-25T05:52:43;9.80;99.90
2621;DHT22;1320;48.128;11.592;2024-01-25T05:57:36;9.70;99.90
2621;DHT22;1320;48.128;11.592;2024-01-25T06:00:03;9.70;99.90
2621;DHT22;1320;48.128;11.592;2024-01-25T06:02:29;9.80;99.90
2621;DHT22;1320;48.128;11.592;2024-01-25T06:04:54;9.70;99.90
2621;DHT22;1320;48.128;11.592;2024-01-25T06:07:23;9.70;99.90
2621;DHT22;1320;48.128;11.592;2024-01-25T06:09:50;9.70;99.90
2621;DHT22;1320;48.128;11.592;2024-01-25T06:12:15;9.70;99.90
2621;DHT22;1320;48.128;11.592;2024-01-25T06:14:42;9.70;99.90
2621;DHT22;1320;48.128;11.592;2024-01-25T06:17:07;9.70;99.90
2621;DHT22;1320;48.128;11.592;2024-01-25T06:19:33;9.60;99.90
2621;DHT22;1320;48.128;11.592;2024-01-25T06:22:00;9.60;99.90
2621;DHT22;1320;48.128;11.592;2024-01-25T06:24:25;9.60;99.90
2621;DHT22;1320;48.128;11.592;2024-01-25T06:26:52;9.60;99.90
2621;DHT22;1320;48.128;11.592;2024-01-25T06:29:19;9.60;99.90
2621;DHT22;1320;48.128;11.592;2024-01-25T06:31:45;9.60;99.90
2621;DHT22;1320;48.128;11.592;2024-01-25T06:34:11;9.60;99.90
2621;DHT22;1320;48.128;11.592;2024-01-25T06:36:37;9.60;99.90
2621;DHT22;1320;48.128;11.592;2024-01-25T06:39:03;9.60;99.90
2621;DHT22;1320;48.128;11.592;2024-01-25T06:41:32;9.60;99.90
2621;DHT22;1320;48.128;11.592;2024-01-25T06:43:59;9.60;99.90
2621;DHT22;1320;48.128;11.592;2024-01-25T06:46:25;9.60;99.90
2621;DHT22;1320;48.128;11.592;2024-01-25T06:48:51;9.50;99.90
2621;DHT22;1320;48.128;11.592;2024-01-25T06:51:17;9.50;99.90
2621;DHT22;1320;48.128;11.592;2024-01-25T06:53:42;9.50;99.90
2621;DHT22;1320;48.128;11.592;2024-01-25T06:56:08;9.40;99.90
2621;DHT22;1320;48.128;11.592;2024-01-25T07:01:04;9.40;99.90
2621;DHT22;1320;48.128;11.592;2024-01-25T07:03:30;9.40;99.90
2621;DHT22;1320;48.128;11.592;2024-01-25T07:05:55;9.50;99.90
2621;DHT22;1320;48.128;11.592;2024-01-25T07:08:21;9.40;99.90
2621;DHT22;1320;48.128;11.592;2024-01-25T07:10:47;9.40;99.90
2621;DHT22;1320;48.128;11.592;2024-01-25T07:13:13;9.40;99.90
2621;DHT22;1320;48.128;11.592;2024-01-25T07:15:38;9.40;99.90
2621;DHT22;1320;48.128;11.592;2024-01-25T07:18:04;9.30;99.90
2621;DHT22;1320;48.128;11.592;2024-01-25T07:22:56;9.30;99.90
2621;DHT22;1320;48.128;11.592;2024-01-25T07:25:22;9.30;99.90
2621;DHT22;1320;48.128;11.592;2024-01-25T07:27:48;9.30;99.90
2621;DHT22;1320;48.128;11.592;2024-01-25T07:30:17;9.30;99.90
2621;DHT22;1320;48.128;11.592;2024-01-25T07:32:42;9.40;99.90
2621;DHT22;1320;48.128;11.592;2024-01-25T07:35:09;9.40;99.90
2621;DHT22;1320;48.128;11.592;2024-01-25T07:37:38;9.40;99.90
2621;DHT22;1320;48.128;11.592;2024-01-25T07:40:05;9.50;99.90
2621;DHT22;1320;48.128;11.592;2024-01-25T07:42:32;9.50;99.90
2621;DHT22;1320;48.128;11.592;2024-01-25T07:44:57;9.40;99.90
2621;DHT22;1320;48.128;11.592;2024-01-25T07:47:23;9.50;99.90
2621;DHT22;1320;48.128;11.592;2024-01-25T07:49:49;9.50;99.90
2621;DHT22;1320;48.128;11.592;2024-01-25T07:52:15;9.50;99.90
2621;DHT22;1320;48.128;11.592;2024-01-25T07:54:40;9.60;99.90
2621;DHT22;1320;48.128;11.592;2024-01-25T07:57:06;9.70;99.90
2621;DHT22;1320;48.128;11.592;2024-01-25T07:59:32;9.60;99.90
2621;DHT22;1320;48.128;11.592;2024-01-25T08:01:57;9.50;99.90
2621;DHT22;1320;48.128;11.592;2024-01-25T08:04:23;9.50;99.90
2621;DHT22;1320;48.128;11.592;2024-01-25T08:06:49;9.50;99.90
2621;DHT22;1320;48.128;11.592;2024-01-25T08:09:14;9.40;99.90
2621;DHT22;1320;48.128;11.592;2024-01-25T08:11:42;9.40;99.90
2621;DHT22;1320;48.128;11.592;2024-01-25T08:14:07;9.40;99.90
2621;DHT22;1320;48.128;11.592;2024-01-25T08:16:33;9.40;99.90
2621;DHT22;1320;48.128;11.592;2024-01-25T08:19:00;9.50;99.90
2621;DHT22;1320;48.128;11.592;2024-01-25T08:21:26;9.50;99.90
2621;DHT22;1320;48.128;11.592;2024-01-25T08:23:51;9.50;99.90
2621;DHT22;1320;48.128;11.592;2024-01-25T08:26:17;9.50;99.90
2621;DHT22;1320;48.128;11.592;2024-01-25T08:28:43;9.50;99.90
2621;DHT22;1320;48.128;11.592;2024-01-25T08:31:10;9.50;99.90
2621;DHT22;1320;48.128;11.592;2024-01-25T08:33:36;9.50;99.90
2621;DHT22;1320;48.128;11.592;2024-01-25T08:36:02;9.60;99.90
2621;DHT22;1320;48.128;11.592;2024-01-25T08:38:28;9.70;99.90
2621;DHT22;1320;48.128;11.592;2024-01-25T08:40:57;9.70;99.90
2621;DHT22;1320;48.128;11.592;2024-01-25T08:43:22;9.80;99.90
2621;DHT22;1320;48.128;11.592;2024-01-25T08:45:48;9.80;99.90
2621;DHT22;1320;48.128;11.592;2024-01-25T08:48:14;9.70;99.90
2621;DHT22;1320;48.128;11.592;2024-01-25T08:50:45;9.80;99.90
2621;DHT22;1320;48.128;11.592;2024-01-25T08:53:11;9.80;99.90
2621;DHT22;1320;48.128;11.592;2024-01-25T08:55:37;9.90;99.90
2621;DHT22;1320;48.128;11.592;2024-01-25T08:58:02;10.10;99.90
2621;DHT22;1320;48.128;11.592;2024-01-25T09:00:28;10.30;99.90
2621;DHT22;1320;48.128;11.592;2024-01-25T09:02:54;10.30;99.90
2621;DHT22;1320;48.128;11.592;2024-01-25T09:05:19;10.40;99.90
2621;DHT22;1320;48.128;11.592;2024-01-25T09:07:45;10.40;99.90
2621;DHT22;1320;48.128;11.592;2024-01-25T09:10:11;10.40;99.90
2621;DHT22;1320;48.128;11.592;2024-01-25T09:12:37;10.50;99.90
2621;DHT22;1320;48.128;11.592;2024-01-25T09:15:04;10.40;99.90
2621;DHT22;1320;48.128;11.592;2024-01-25T09:17:30;10.50;99.90
2621;DHT22;1320;48.128;11.592;2024-01-25T09:19:55;10.60;99.90
2621;DHT22;1320;48.128;11.592;2024-01-25T09:22:24;10.70;99.90
2621;DHT22;1320;48.128;11.592;2024-01-25T09:24:50;10.80;99.90
2621;DHT22;1320;48.128;11.592;2024-01-25T09:27:15;10.90;99.90
2621;DHT22;1320;48.128;11.592;2024-01-25T09:29:41;11.20;99.90
2621;DHT22;1320;48.128;11.592;2024-01-25T09:32:08;11.40;99.90
2621;DHT22;1320;48.128;11.592;2024-01-25T09:34:37;11.40;99.90
2621;DHT22;1320;48.128;11.592;2024-01-25T09:37:04;11.40;99.90
2621;DHT22;1320;48.128;11.592;2024-01-25T09:39:31;11.40;99.90
2621;DHT22;1320;48.128;11.592;2024-01-25T09:41:57;11.40;99.90
2621;DHT22;1320;48.128;11.592;2024-01-25T09:44:23;11.50;99.90
2621;DHT22;1320;48.128;11.592;2024-01-25T09:46:50;11.60;99.90
2621;DHT22;1320;48.128;11.592;2024-01-25T09:49:16;11.70;99.90
2621;DHT22;1320;48.128;11.592;2024-01-25T09:51:43;11.80;99.90
2621;DHT22;1320;48.128;11.592;2024-01-25T09:54:09;11.90;99.90
2621;DHT22;1320;48.128;11.592;2024-01-25T09:56:35;11.90;99.90
2621;DHT22;1320;48.128;11.592;2024-01-25T09:59:01;11.90;99.90
2621;DHT22;1320;48.128;11.592;2024-01-25T10:01:28;11.90;99.90
2621;DHT22;1320;48.128;11.592;2024-01-25T10:03:54;12.10;99.90
2621;DHT22;1320;48.128;11.592;2024-01-25T10:06:23;12.20;99.90
2621;DHT22;1320;48.128;11.592;2024-01-25T10:08:48;12.30;99.90
2621;DHT22;1320;48.128;11.592;2024-01-25T10:11:15;12.30;99.90
2621;DHT22;1320;48.128;11.592;2024-01-25T10:13:44;12.30;99.90
2621;DHT22;1320;48.128;11.592;2024-01-25T10:16:13;12.30;99.90
2621;DHT22;1320;48.128;11.592;2024-01-25T10:18:43;12.10;99.90
2621;DHT22;1320;48.128;11.592;2024-01-25T10:21:13;12.00;99.90
2621;DHT22;1320;48.128;11.592;2024-01-25T10:23:39;11.90;99.90
2621;DHT22;1320;48.128;11.592;2024-01-25T10:26:05;11.90;99.90
2621;DHT22;1320;48.128;11.592;2024-01-25T10:28:33;11.80;99.90
2621;DHT22;1320;48.128;11.592;2024-01-25T10:31:02;11.80;99.90
2621;DHT22;1320;48.128;11.592;2024-01-25T10:33:30;11.60;99.90
2621;DHT22;1320;48.128;11.592;2024-01-25T10:35:57;11.60;99.90
2621;DHT22;1320;48.128;11.592;2024-01-25T10:38:33;11.50;99.90
2621;DHT22;1320;48.128;11.592;2024-01-25T10:41:01;11.40;99.90
2621;DHT22;1320;48.128;11.592;2024-01-25T10:43:28;11.50;99.90
2621;DHT22;1320;48.128;11.592;2024-01-25T10:45:56;11.50;99.90
2621;DHT22;1320;48.128;11.592;2024-01-25T10:48:25;11.50;99.90
2621;DHT22;1320;48.128;11.592;2024-01-25T10:50:56;11.40;99.90
2621;DHT22;1320;48.128;11.592;2024-01-25T10:53:23;11.40;99.90
2621;DHT22;1320;48.128;11.592;2024-01-25T10:55:49;11.40;99.90
2621;DHT22;1320;48.128;11.592;2024-01-25T10:58:16;11.30;99.90
2621;DHT22;1320;48.128;11.592;2024-01-25T11:00:49;11.20;99.90
2621;DHT22;1320;48.128;11.592;2024-01-25T11:03:17;11.20;99.90
2621;DHT22;1320;48.128;11.592;2024-01-25T11:05:43;11.40;99.90
2621;DHT22;1320;48.128;11.592;2024-01-25T11:08:20;11.70;99.90
2621;DHT22;1320;48.128;11.592;2024-01-25T11:10:51;11.90;99.90
2621;DHT22;1320;48.128;11.592;2024-01-25T11:13:23;12.10;99.90
2621;DHT22;1320;48.128;11.592;2024-01-25T11:15:49;12.10;99.90
2621;DHT22;1320;48.128;11.592;2024-01-25T11:18:16;12.10;99.90
2621;DHT22;1320;48.128;11.592;2024-01-25T11:20:41;12.10;99.90
2621;DHT22;1320;48.128;11.592;2024-01-25T11:23:07;12.00;99.90
2621;DHT22;1320;48.128;11.592;2024-01-25T11:25:37;12.00;99.90
2621;DHT22;1320;48.128;11.592;2024-01-25T11:28:04;12.00;99.90
2621;DHT22;1320;48.128;11.592;2024-01-25T11:30:33;12.00;99.90
2621;DHT22;1320;48.128;11.592;2024-01-25T11:32:59;12.10;99.90
2621;DHT22;1320;48.128;11.592;2024-01-25T11:35:25;12.20;99.90
2621;DHT22;1320;48.128;11.592;2024-01-25T11:37:51;12.20;99.90
2621;DHT22;1320;48.128;11.592;2024-01-25T11:40:23;12.20;99.90
2621;DHT22;1320;48.128;11.592;2024-01-25T11:42:50;12.30;99.90
2621;DHT22;1320;48.128;11.592;2024-01-25T11:45:16;12.40;99.90
2621;DHT22;1320;48.128;11.592;2024-01-25T11:47:42;12.40;99.90
2621;DHT22;1320;48.128;11.592;2024-01-25T11:50:10;12.40;99.90
2621;DHT22;1320;48.128;11.592;2024-01-25T11:52:36;12.30;99.90
2621;DHT22;1320;48.128;11.592;2024-01-25T11:55:06;12.30;99.90
2621;DHT22;1320;48.128;11.592;2024-01-25T11:57:38;12.40;99.90
2621;DHT22;1320;48.128;11.592;2024-01-25T12:00:12;12.50;99.90
2621;DHT22;1320;48.128;11.592;2024-01-25T12:05:05;12.80;99.90
2621;DHT22;1320;48.128;11.592;2024-01-25T12:07:31;13.00;99.90
2621;DHT22;1320;48.128;11.592;2024-01-25T12:10:07;13.20;99.90
2621;DHT22;1320;48.128;11.592;2024-01-25T12:12:37;13.30;99.90
2621;DHT22;1320;48.128;11.592;2024-01-25T12:15:06;13.20;99.90
2621;DHT22;1320;48.128;11.592;2024-01-25T12:17:33;13.10;99.90
2621;DHT22;1320;48.128;11.592;2024-01-25T12:20:02;13.00;99.90
2621;DHT22;1320;48.128;11.592;2024-01-25T12:22:29;12.90;99.90
2621;DHT22;1320;48.128;11.592;2024-01-25T12:24:56;12.90;99.90
2621;DHT22;1320;48.128;11.592;2024-01-25T12:27:22;12.90;99.90
2621;DHT22;1320;48.128;11.592;2024-01-25T12:29:50;12.90;99.90
2621;DHT22;1320;48.128;11.592;2024-01-25T12:32:16;12.90;99.90
2621;DHT22;1320;48.128;11.592;2024-01-25T12:34:42;12.90;99.90
2621;DHT22;1320;48.128;11.592;2024-01-25T12:37:09;12.90;99.90
2621;DHT22;1320;48.128;11.592;2024-01-25T12:39:35;12.80;99.90
2621;DHT22;1320;48.128;11.592;2024-01-25T12:42:00;12.80;99.90
2621;DHT22;1320;48.128;11.592;2024-01-25T12:44:26;12.90;99.90
2621;DHT22;1320;48.128;11.592;2024-01-25T12:46:52;12.90;99.90
2621;DHT22;1320;48.128;11.592;2024-01-25T12:49:18;13.00;99.90
2621;DHT22;1320;48.128;11.592;2024-01-25T12:51:43;12.90;99.90
2621;DHT22;1320;48.128;11.592;2024-01-25T12:54:09;12.80;99.90
2621;DHT22;1320;48.128;11.592;2024-01-25T12:56:35;12.80;99.90
2621;DHT22;1320;48.128;11.592;2024-01-25T12:59:01;12.70;99.90
2621;DHT22;1320;48.128;11.592;2024-01-25T13:01:27;12.70;99.90
2621;DHT22;1320;48.128;11.592;2024-01-25T13:03:52;12.70;99.90
2621;DHT22;1320;48.128;11.592;2024-01-25T13:06:18;12.70;99.90
2621;DHT22;1320;48.128;11.592;2024-01-25T13:08:44;12.70;99.90
2621;DHT22;1320;48.128;11.592;2024-01-25T13:11:11;12.70;99.90
2621;DHT22;1320;48.128;11.592;2024-01-25T13:13:36;12.70;99.90
2621;DHT22;1320;48.128;11.592;2024-01-25T13:16:02;12.70;99.90
2621;DHT22;1320;48.128;11.592;2024-01-25T13:18:28;12.70;99.90
2621;DHT22;1320;48.128;11.592;2024-01-25T13:20:54;12.60;99.90
2621;DHT22;1320;48.128;11.592;2024-01-25T13:23:19;12.60;99.90
2621;DHT22;1320;48.128;11.592;2024-01-25T13:25:45;12.70;99.90
2621;DHT22;1320;48.128;11.592;2024-01-25T13:28:10;12.70;99.90
2621;DHT22;1320;48.128;11.592;2024-01-25T13:30:36;12.70;99.90
2621;DHT22;1320;48.128;11.592;2024-01-25T13:33:02;12.70;99.90
2621;DHT22;1320;48.128;11.592;2024-01-25T13:35:27;12.70;99.90
2621;DHT22;1320;48.128;11.592;2024-01-25T13:37:53;12.80;99.90
2621;DHT22;1320;48.128;11.592;2024-01-25T13:40:19;12.80;99.90
2621;DHT22;1320;48.128;11.592;2024-01-25T13:42:44;12.90;99.90
2621;DHT22;1320;48.128;11.592;2024-01-25T13:45:11;13.00;99.90
2621;DHT22;1320;48.128;11.592;2024-01-25T13:47:36;13.10;99.90
2621;DHT22;1320;48.128;11.592;2024-01-25T13:50:02;13.20;99.90
2621;DHT22;1320;48.128;11.592;2024-01-25T13:52:28;13.20;99.90
2621;DHT22;1320;48.128;11.592;2024-01-25T13:54:53;13.30;99.90
2621;DHT22;1320;48.128;11.592;2024-01-25T13:57:20;13.30;99.90
2621;DHT22;1320;48.128;11.592;2024-01-25T13:59:49;13.30;99.90
2621;DHT22;1320;48.128;11.592;2024-01-25T14:02:14;13.30;99.90
2621;DHT22;1320;48.128;11.592;2024-01-25T14:04:40;13.30;99.90
2621;DHT22;1320;48.128;11.592;2024-01-25T14:07:06;13.20;99.90
2621;DHT22;1320;48.128;11.592;2024-01-25T14:09:31;13.10;99.90
2621;DHT22;1320;48.128;11.592;2024-01-25T14:11:57;13.10;99.90
2621;DHT22;1320;48.128;11.592;2024-01-25T14:14:23;13.10;99.90
2621;DHT22;1320;48.128;11.592;2024-01-25T14:16:48;13.00;99.90
2621;DHT22;1320;48.128;11.592;2024-01-25T14:19:14;13.00;99.90
2621;DHT22;1320;48.128;11.592;2024-01-25T14:21:40;12.90;99.90
2621;DHT22;1320;48.128;11.592;2024-01-25T14:24:05;12.90;99.90
2621;DHT22;1320;48.128;11.592;2024-01-25T14:26:31;12.90;99.90
2621;DHT22;1320;48.128;11.592;2024-01-25T14:28:57;12.80;99.90
2621;DHT22;1320;48.128;11.592;2024-01-25T14:31:22;12.80;99.90
2621;DHT22;1320;48.128;11.592;2024-01-25T14:33:48;12.80;99.90
2621;DHT22;1320;48.128;11.592;2024-01-25T14:36:14;12.80;99.90
2621;DHT22;1320;48.128;11.592;2024-01-25T14:38:39;12.80;99.90
2621;DHT22;1320;48.128;11.592;2024-01-25T14:41:08;12.70;99.90
2621;DHT22;1320;48.128;11.592;2024-01-25T14:43:35;12.60;99.90
2621;DHT22;1320;48.128;11.592;2024-01-25T14:46:01;12.50;99.90
2621;DHT22;1320;48.128;11.592;2024-01-25T14:48:26;12.50;99.90
2621;DHT22;1320;48.128;11.592;2024-01-25T14:50:52;12.40;99.90
2621;DHT22;1320;48.128;11.592;2024-01-25T14:53:18;12.40;99.90
2621;DHT22;1320;48.128;11.592;2024-01-25T14:55:44;12.40;99.90
2621;DHT22;1320;48.128;11.592;2024-01-25T14:58:10;12.30;99.90
2621;DHT22;1320;48.128;11.592;2024-01-25T15:00:35;12.30;99.90
2621;DHT22;1320;48.128;11.592;2024-01-25T15:03:01;12.20;99.90
2621;DHT22;1320;48.128;11.592;2024-01-25T15:05:27;12.20;99.90
2621;DHT22;1320;48.128;11.592;2024-01-25T15:07:52;12.20;99.90
2621;DHT22;1320;48.128;11.592;2024-01-25T15:10:18;12.10;99.90
2621;DHT22;1320;48.128;11.592;2024-01-25T15:12:44;12.10;99.90
2621;DHT22;1320;48.128;11.592;2024-01-25T15:15:09;12.10;99.90
2621;DHT22;1320;48.128;11.592;2024-01-25T15:17:35;12.10;99.90
2621;DHT22;1320;48.128;11.592;2024-01-25T15:20:01;12.10;99.90
2621;DHT22;1320;48.128;11.592;2024-01-25T15:22:27;12.00;99.90
2621;DHT22;1320;48.128;11.592;2024-01-25T15:24:52;12.10;99.90
2621;DHT22;1320;48.128;11.592;2024-01-25T15:27:18;12.10;99.90
2621;DHT22;1320;48.128;11.592;2024-01-25T15:29:50;12.10;99.90
2621;DHT22;1320;48.128;11.592;2024-01-25T15:32:16;12.10;99.90
2621;DHT22;1320;48.128;11.592;2024-01-25T15:34:41;12.00;99.90
2621;DHT22;1320;48.128;11.592;2024-01-25T15:37:07;12.00;99.90
2621;DHT22;1320;48.128;11.592;2024-01-25T15:39:33;11.90;99.90
2621;DHT22;1320;48.128;11.592;2024-01-25T15:41:58;11.90;99.90
2621;DHT22;1320;48.128;11.592;2024-01-25T15:44:24;11.90;99.90
2621;DHT22;1320;48.128;11.592;2024-01-25T15:46:50;11.80;99.90
2621;DHT22;1320;48.128;11.592;2024-01-25T15:49:15;11.80;99.90
2621;DHT22;1320;48.128;11.592;2024-01-25T15:51:41;11.70;99.90
2621;DHT22;1320;48.128;11.592;2024-01-25T15:54:07;11.70;99.90